Honolulu, HI (96815)

9:57 AM HST on May 23, 2017 (GMT -1000)
Allure Waikiki | | Change Station

Elev 0 ft 21.29 °N, 157.83 °W | Updated 14 seconds ago

Clear
Clear
76.8 °F
Feels Like 79 °F
N
1.0
Wind Variable Wind from NNE

Today
High -- | Low -- °F
--% Chance of Precip.
Yesterday
High -- | Low -- °F
Precip. -- in
Pressure 30.07 in
Visibility 10.0 miles
Clouds Few 2400 ft
Scattered Clouds 4400 ft
Mostly Cloudy 7000 ft
Heat Index 79 °F
Dew Point 63 °F
Humidity 63%
Rainfall 0.04 in
Snow Depth Not available.
5:50 AM 7:06 PM
Waning Crescent, 6% visible
METAR PHNL 231953Z 04015KT 10SM FEW024 SCT044 BKN070 25/19 A3007 RMK AO2 RAB1855E32 SLP181 P0000 T02500189
Pressure 30.07 in
Visibility 10.0 miles
Clouds Few 2400 ft
Scattered Clouds 4400 ft
Mostly Cloudy 7000 ft
Heat Index 79 °F
Dew Point 63 °F
Humidity 63%
Rainfall 0.04 in
Snow Depth Not available.
5:50 AM 7:06 PM
Waning Crescent, 6% visible
METAR PHNL 231953Z 04015KT 10SM FEW024 SCT044 BKN070 25/19 A3007 RMK AO2 RAB1855E32 SLP181 P0000 T02500189

Get Severe Weather Alerts

Thanks for signing up!

Be on the lookout for a verification email in your inbox.

You'll start receiving the daily forecast at 6 AM.

×

10-Day Weather Forecast

Almanac

Astronomy

May. 23, 2017 Rise Set
Actual Time
Civil Twilight
Nautical Twilight
Astronomical Twilight
Moon
Length of Visible Light
Length of Day
Tomorrow will be .
, % of the Moon is Illuminated

Today's Extremes

State Highs State Lows

Community

WunderPhotos

Category 6

Welcome to Category 6. This is the collective home for Weather Underground's featured writeups by Dr. Jeff Masters (right), Bob Henson (left), Chris Burt, and other regular contributors.

Nearby

Air Quality

  Air Quality AQ Index Pollutant
Not available.

Snow Depth

Station Depth Elevation

Earthquake Activity

City Distance Mag. Time & Date
Minimum magnitude displayed is 2.5.

Coastal Water Temperatures

Place Temperature

Stations

Nearby Weather Stations

Station Location Temp. Windchill Dew Point Humidity Wind Precip. Elev Updated Type
                   

Watches & Warnings

There are currently no watches in effect.